sensor_id;sensor_type;location;lat;lon;timestamp;pressure;altitude;pressure_sealevel;temperature;humidity
7748;BME280;3918;42.564;23.164;2024-03-17T05:03:08;-11650.84;;;-142.29;100.00
7748;BME280;3918;42.564;23.164;2024-03-17T05:05:35;-11650.84;;;-142.29;100.00
7748;BME280;3918;42.564;23.164;2024-03-17T05:08:01;-11650.84;;;-142.29;100.00
7748;BME280;3918;42.564;23.164;2024-03-17T05:10:28;-11650.84;;;-142.29;100.00
7748;BME280;3918;42.564;23.164;2024-03-17T05:12:56;-11650.84;;;-142.29;100.00
7748;BME280;3918;42.564;23.164;2024-03-17T05:15:22;-11650.84;;;-142.29;100.00
7748;BME280;3918;42.564;23.164;2024-03-17T05:17:49;-11650.84;;;-142.29;100.00
7748;BME280;3918;42.564;23.164;2024-03-17T05:20:18;-11650.84;;;-142.29;100.00
7748;BME280;3918;42.564;23.164;2024-03-17T05:22:44;-11650.84;;;-142.29;100.00
7748;BME280;3918;42.564;23.164;2024-03-17T05:25:13;-11650.84;;;-142.29;100.00
7748;BME280;3918;42.564;23.164;2024-03-17T05:27:40;-11650.84;;;-142.29;100.00
7748;BME280;3918;42.564;23.164;2024-03-17T05:30:07;-11650.84;;;-142.29;100.00
7748;BME280;3918;42.564;23.164;2024-03-17T05:32:35;-11650.84;;;-142.29;100.00
7748;BME280;3918;42.564;23.164;2024-03-17T05:35:01;-11650.84;;;-142.29;100.00
7748;BME280;3918;42.564;23.164;2024-03-17T05:37:30;-11650.84;;;-142.29;100.00
7748;BME280;3918;42.564;23.164;2024-03-17T05:39:57;-11650.84;;;-142.29;100.00
7748;BME280;3918;42.564;23.164;2024-03-17T05:42:23;-11650.84;;;-142.29;100.00
7748;BME280;3918;42.564;23.164;2024-03-17T05:44:50;-11650.84;;;-142.29;100.00
7748;BME280;3918;42.564;23.164;2024-03-17T05:47:18;-11650.84;;;-142.29;100.00
7748;BME280;3918;42.564;23.164;2024-03-17T05:49:45;-11650.84;;;-142.29;100.00
7748;BME280;3918;42.564;23.164;2024-03-17T05:52:12;-11650.84;;;-142.29;100.00
7748;BME280;3918;42.564;23.164;2024-03-17T05:54:41;-11650.84;;;-142.29;100.00
7748;BME280;3918;42.564;23.164;2024-03-17T05:57:07;-11650.84;;;-142.29;100.00
7748;BME280;3918;42.564;23.164;2024-03-17T05:59:39;-11650.84;;;-142.29;100.00
7748;BME280;3918;42.564;23.164;2024-03-17T06:02:06;-11650.84;;;-142.29;100.00
7748;BME280;3918;42.564;23.164;2024-03-17T06:04:35;-11650.84;;;-142.29;100.00
7748;BME280;3918;42.564;23.164;2024-03-17T06:07:03;-11650.84;;;-142.29;96.39
7748;BME280;3918;42.564;23.164;2024-03-17T06:09:31;-11650.84;;;-142.29;87.98
7748;BME280;3918;42.564;23.164;2024-03-17T06:11:59;-11650.84;;;-142.29;82.72
7748;BME280;3918;42.564;23.164;2024-03-17T06:14:26;-11650.84;;;-142.29;83.53
7748;BME280;3918;42.564;23.164;2024-03-17T06:16:53;-11650.84;;;-142.29;85.76
7748;BME280;3918;42.564;23.164;2024-03-17T06:19:20;-11650.84;;;-142.29;89.43
7748;BME280;3918;42.564;23.164;2024-03-17T06:21:46;-11650.84;;;-142.29;92.51
7748;BME280;3918;42.564;23.164;2024-03-17T06:24:13;-11650.84;;;-142.29;93.44
7748;BME280;3918;42.564;23.164;2024-03-17T06:26:40;-11650.84;;;-142.29;97.38
7748;BME280;3918;42.564;23.164;2024-03-17T06:29:08;-11650.84;;;-142.29;98.15
7748;BME280;3918;42.564;23.164;2024-03-17T06:31:35;-11650.84;;;-142.29;96.25
7748;BME280;3918;42.564;23.164;2024-03-17T06:34:02;-11650.84;;;-142.29;99.51
7748;BME280;3918;42.564;23.164;2024-03-17T06:36:29;-11650.84;;;-142.29;94.47
7748;BME280;3918;42.564;23.164;2024-03-17T06:38:56;-11650.84;;;-142.29;83.81
7748;BME280;3918;42.564;23.164;2024-03-17T06:41:23;-11650.84;;;-142.29;78.47
7748;BME280;3918;42.564;23.164;2024-03-17T06:43:50;-11650.84;;;-142.29;77.25
7748;BME280;3918;42.564;23.164;2024-03-17T06:46:18;-11650.84;;;-142.29;72.73
7748;BME280;3918;42.564;23.164;2024-03-17T06:48:45;-11650.84;;;-142.29;63.90
7748;BME280;3918;42.564;23.164;2024-03-17T06:51:11;-11650.84;;;-142.29;57.67
7748;BME280;3918;42.564;23.164;2024-03-17T06:53:38;-11650.84;;;-142.29;53.90
7748;BME280;3918;42.564;23.164;2024-03-17T06:56:05;-11650.84;;;-142.29;52.56
7748;BME280;3918;42.564;23.164;2024-03-17T06:58:32;-11650.84;;;-142.29;51.15
7748;BME280;3918;42.564;23.164;2024-03-17T07:01:00;-11650.84;;;-142.29;48.54
7748;BME280;3918;42.564;23.164;2024-03-17T07:03:30;-11650.84;;;-142.29;47.82
7748;BME280;3918;42.564;23.164;2024-03-17T07:05:58;-11650.84;;;-142.29;45.89
7748;BME280;3918;42.564;23.164;2024-03-17T07:08:28;-11650.84;;;-142.29;45.90
7748;BME280;3918;42.564;23.164;2024-03-17T07:10:58;-11650.84;;;-142.29;46.76
7748;BME280;3918;42.564;23.164;2024-03-17T07:13:26;-11650.84;;;-142.29;46.14
7748;BME280;3918;42.564;23.164;2024-03-17T07:15:54;-11650.84;;;-142.29;44.21
7748;BME280;3918;42.564;23.164;2024-03-17T07:18:21;-11650.84;;;-142.29;42.76
7748;BME280;3918;42.564;23.164;2024-03-17T07:20:49;-11650.84;;;-142.29;41.85
7748;BME280;3918;42.564;23.164;2024-03-17T07:23:16;-11650.84;;;-142.29;40.63
7748;BME280;3918;42.564;23.164;2024-03-17T07:25:51;-11650.84;;;-142.29;40.07
7748;BME280;3918;42.564;23.164;2024-03-17T07:28:18;-11650.84;;;-142.29;41.04
7748;BME280;3918;42.564;23.164;2024-03-17T07:30:47;-11650.84;;;-142.29;41.23
7748;BME280;3918;42.564;23.164;2024-03-17T07:33:13;-11650.84;;;-142.29;41.98
7748;BME280;3918;42.564;23.164;2024-03-17T07:35:46;-11650.84;;;-142.29;42.94
7748;BME280;3918;42.564;23.164;2024-03-17T07:38:15;-11650.84;;;-142.29;42.34
7748;BME280;3918;42.564;23.164;2024-03-17T07:40:42;-11650.84;;;-142.29;42.55
7748;BME280;3918;42.564;23.164;2024-03-17T07:43:09;-11650.84;;;-142.29;43.90
7748;BME280;3918;42.564;23.164;2024-03-17T07:45:35;-11650.84;;;-142.29;42.89
7748;BME280;3918;42.564;23.164;2024-03-17T07:48:03;-11650.84;;;-142.29;44.21
7748;BME280;3918;42.564;23.164;2024-03-17T07:50:29;-11650.84;;;-142.29;43.05
7748;BME280;3918;42.564;23.164;2024-03-17T07:52:58;-11650.84;;;-142.29;44.16
7748;BME280;3918;42.564;23.164;2024-03-17T07:55:26;-11650.84;;;-142.29;43.39
7748;BME280;3918;42.564;23.164;2024-03-17T07:57:53;-11650.84;;;-142.29;42.64
7748;BME280;3918;42.564;23.164;2024-03-17T08:00:20;-11650.84;;;-142.29;44.14
7748;BME280;3918;42.564;23.164;2024-03-17T08:02:47;-11650.84;;;-142.29;45.75
7748;BME280;3918;42.564;23.164;2024-03-17T08:05:14;-11650.84;;;-142.29;46.99
7748;BME280;3918;42.564;23.164;2024-03-17T08:07:41;-11650.84;;;-142.29;47.66
7748;BME280;3918;42.564;23.164;2024-03-17T08:10:08;-11650.84;;;-142.29;48.44
7748;BME280;3918;42.564;23.164;2024-03-17T08:12:36;-11650.84;;;-142.29;48.39
7748;BME280;3918;42.564;23.164;2024-03-17T08:15:03;-11650.84;;;-142.29;48.71
7748;BME280;3918;42.564;23.164;2024-03-17T08:17:30;-11650.84;;;-142.29;51.72
7748;BME280;3918;42.564;23.164;2024-03-17T08:19:57;-11650.84;;;-142.29;54.16
7748;BME280;3918;42.564;23.164;2024-03-17T08:22:24;-11650.84;;;-142.29;56.93
7748;BME280;3918;42.564;23.164;2024-03-17T08:24:50;-11650.84;;;-142.29;63.83
7748;BME280;3918;42.564;23.164;2024-03-17T08:27:17;-11650.84;;;-142.29;71.37
7748;BME280;3918;42.564;23.164;2024-03-17T08:29:45;-11650.84;;;-142.29;75.54
7748;BME280;3918;42.564;23.164;2024-03-17T08:32:13;-11650.84;;;-142.29;76.73
7748;BME280;3918;42.564;23.164;2024-03-17T08:34:40;-11650.84;;;-142.29;80.29
7748;BME280;3918;42.564;23.164;2024-03-17T08:37:06;-11650.84;;;-142.29;83.16
7748;BME280;3918;42.564;23.164;2024-03-17T08:39:34;-11650.84;;;-142.29;85.46
7748;BME280;3918;42.564;23.164;2024-03-17T08:42:01;-11650.84;;;-142.29;84.16
7748;BME280;3918;42.564;23.164;2024-03-17T08:44:29;-11650.84;;;-142.29;81.64
7748;BME280;3918;42.564;23.164;2024-03-17T08:46:57;-11650.84;;;-142.29;75.66
7748;BME280;3918;42.564;23.164;2024-03-17T08:49:23;-11650.84;;;-142.29;66.57
7748;BME280;3918;42.564;23.164;2024-03-17T08:51:51;-11650.84;;;-142.29;65.76
7748;BME280;3918;42.564;23.164;2024-03-17T08:54:18;-11650.84;;;-142.29;63.05
7748;BME280;3918;42.564;23.164;2024-03-17T08:56:45;-11650.84;;;-142.29;60.94
7748;BME280;3918;42.564;23.164;2024-03-17T08:59:12;-11650.84;;;-142.29;55.64
7748;BME280;3918;42.564;23.164;2024-03-17T09:01:39;-11650.84;;;-142.29;54.39
7748;BME280;3918;42.564;23.164;2024-03-17T09:04:07;-11650.84;;;-142.29;53.57
7748;BME280;3918;42.564;23.164;2024-03-17T09:06:36;-11650.84;;;-142.29;52.51
7748;BME280;3918;42.564;23.164;2024-03-17T09:09:03;-11650.84;;;-142.29;51.86
7748;BME280;3918;42.564;23.164;2024-03-17T09:11:31;-11650.84;;;-142.29;53.67
7748;BME280;3918;42.564;23.164;2024-03-17T09:13:58;-11650.84;;;-142.29;54.52
7748;BME280;3918;42.564;23.164;2024-03-17T09:16:25;-11650.84;;;-142.29;55.57
7748;BME280;3918;42.564;23.164;2024-03-17T09:18:54;-11650.84;;;-142.29;57.38
7748;BME280;3918;42.564;23.164;2024-03-17T09:21:22;-11650.84;;;-142.29;59.28
7748;BME280;3918;42.564;23.164;2024-03-17T09:23:48;-11650.84;;;-142.29;59.45
7748;BME280;3918;42.564;23.164;2024-03-17T09:26:15;-11650.84;;;-142.29;56.92
7748;BME280;3918;42.564;23.164;2024-03-17T09:28:43;-11650.84;;;-142.29;57.79
7748;BME280;3918;42.564;23.164;2024-03-17T09:31:11;-11650.84;;;-142.29;57.66
7748;BME280;3918;42.564;23.164;2024-03-17T09:33:38;-11650.84;;;-142.29;63.18
7748;BME280;3918;42.564;23.164;2024-03-17T09:36:05;-11650.84;;;-142.29;62.78
7748;BME280;3918;42.564;23.164;2024-03-17T09:38:35;-11650.84;;;-142.29;60.20
7748;BME280;3918;42.564;23.164;2024-03-17T09:41:06;-11650.84;;;-142.29;55.95
7748;BME280;3918;42.564;23.164;2024-03-17T09:43:34;-11650.84;;;-142.29;54.54
7748;BME280;3918;42.564;23.164;2024-03-17T09:46:02;-11650.84;;;-142.29;57.28
7748;BME280;3918;42.564;23.164;2024-03-17T09:48:29;-11650.84;;;-142.29;55.81
7748;BME280;3918;42.564;23.164;2024-03-17T09:50:57;-11650.84;;;-142.29;53.00
7748;BME280;3918;42.564;23.164;2024-03-17T09:53:25;-11650.84;;;-142.29;53.81
7748;BME280;3918;42.564;23.164;2024-03-17T09:55:57;-11650.84;;;-142.29;54.77
7748;BME280;3918;42.564;23.164;2024-03-17T09:58:24;-11650.84;;;-142.29;54.29
7748;BME280;3918;42.564;23.164;2024-03-17T10:00:51;-11650.84;;;-142.29;52.44
7748;BME280;3918;42.564;23.164;2024-03-17T10:03:39;-11650.84;;;-142.29;50.96
7748;BME280;3918;42.564;23.164;2024-03-17T10:06:07;-11650.84;;;-142.29;50.99
7748;BME280;3918;42.564;23.164;2024-03-17T10:08:40;-11650.84;;;-142.29;50.16
7748;BME280;3918;42.564;23.164;2024-03-17T10:11:08;-11650.84;;;-142.29;51.76
7748;BME280;3918;42.564;23.164;2024-03-17T10:13:36;-11650.84;;;-142.29;53.24
7748;BME280;3918;42.564;23.164;2024-03-17T10:16:03;-11650.84;;;-142.29;51.36
7748;BME280;3918;42.564;23.164;2024-03-17T10:18:30;-11650.84;;;-142.29;51.93
7748;BME280;3918;42.564;23.164;2024-03-17T10:20:57;-11650.84;;;-142.29;51.84
7748;BME280;3918;42.564;23.164;2024-03-17T10:23:25;-11650.84;;;-142.29;51.42
7748;BME280;3918;42.564;23.164;2024-03-17T10:25:53;-11650.84;;;-142.29;52.37
7748;BME280;3918;42.564;23.164;2024-03-17T10:28:21;-11650.84;;;-142.29;52.04
7748;BME280;3918;42.564;23.164;2024-03-17T10:30:58;-11650.84;;;-142.29;47.74
7748;BME280;3918;42.564;23.164;2024-03-17T10:33:25;-11650.84;;;-142.29;47.74
7748;BME280;3918;42.564;23.164;2024-03-17T10:35:59;-11650.84;;;-142.29;49.01
7748;BME280;3918;42.564;23.164;2024-03-17T10:38:26;-11650.84;;;-142.29;49.89
7748;BME280;3918;42.564;23.164;2024-03-17T10:40:53;-11650.84;;;-142.29;48.76
7748;BME280;3918;42.564;23.164;2024-03-17T10:43:22;-11650.84;;;-142.29;47.49
7748;BME280;3918;42.564;23.164;2024-03-17T10:45:52;-11650.84;;;-142.29;47.39
7748;BME280;3918;42.564;23.164;2024-03-17T10:48:21;-11650.84;;;-142.29;48.61
7748;BME280;3918;42.564;23.164;2024-03-17T10:50:50;-11650.84;;;-142.29;50.11
7748;BME280;3918;42.564;23.164;2024-03-17T10:53:20;-11650.84;;;-142.29;48.87
7748;BME280;3918;42.564;23.164;2024-03-17T10:55:56;-11650.84;;;-142.29;48.16
7748;BME280;3918;42.564;23.164;2024-03-17T10:58:33;-11650.84;;;-142.29;49.77
7748;BME280;3918;42.564;23.164;2024-03-17T11:01:01;-11650.84;;;-142.29;50.57
7748;BME280;3918;42.564;23.164;2024-03-17T11:03:35;-11650.84;;;-142.29;49.54
7748;BME280;3918;42.564;23.164;2024-03-17T11:06:04;-11650.84;;;-142.29;49.73
7748;BME280;3918;42.564;23.164;2024-03-17T11:08:32;-11650.84;;;-142.29;51.03
7748;BME280;3918;42.564;23.164;2024-03-17T11:11:00;-11650.84;;;-142.29;49.85
7748;BME280;3918;42.564;23.164;2024-03-17T11:13:31;-11650.84;;;-142.29;50.64
7748;BME280;3918;42.564;23.164;2024-03-17T11:15:59;-11650.84;;;-142.29;49.67
7748;BME280;3918;42.564;23.164;2024-03-17T11:18:36;-11650.84;;;-142.29;49.55
7748;BME280;3918;42.564;23.164;2024-03-17T11:21:04;-11650.84;;;-142.29;51.59
7748;BME280;3918;42.564;23.164;2024-03-17T11:23:36;-11650.84;;;-142.29;51.75
7748;BME280;3918;42.564;23.164;2024-03-17T11:26:05;-11650.84;;;-142.29;50.99
7748;BME280;3918;42.564;23.164;2024-03-17T11:28:50;-11650.84;;;-142.29;52.34
7748;BME280;3918;42.564;23.164;2024-03-17T11:31:41;-11650.84;;;-142.29;53.24
7748;BME280;3918;42.564;23.164;2024-03-17T11:34:34;-11650.84;;;-142.29;53.41
7748;BME280;3918;42.564;23.164;2024-03-17T11:37:03;-11650.84;;;-142.29;53.45
7748;BME280;3918;42.564;23.164;2024-03-17T11:39:53;-11650.84;;;-142.29;56.13
7748;BME280;3918;42.564;23.164;2024-03-17T11:42:22;-11650.84;;;-142.29;54.17
7748;BME280;3918;42.564;23.164;2024-03-17T11:45:04;-11650.84;;;-142.29;51.64
7748;BME280;3918;42.564;23.164;2024-03-17T11:47:34;-11650.84;;;-142.29;52.97
7748;BME280;3918;42.564;23.164;2024-03-17T11:50:02;-11650.84;;;-142.29;49.72
7748;BME280;3918;42.564;23.164;2024-03-17T11:52:29;-11650.84;;;-142.29;48.99
7748;BME280;3918;42.564;23.164;2024-03-17T11:54:54;-11650.84;;;-142.29;49.42
7748;BME280;3918;42.564;23.164;2024-03-17T11:57:22;-11650.84;;;-142.29;49.31
7748;BME280;3918;42.564;23.164;2024-03-17T11:59:49;-11650.84;;;-142.29;48.50
7748;BME280;3918;42.564;23.164;2024-03-17T12:02:22;-11650.84;;;-142.29;50.32
7748;BME280;3918;42.564;23.164;2024-03-17T12:04:49;-11650.84;;;-142.29;50.16
7748;BME280;3918;42.564;23.164;2024-03-17T12:07:17;-11650.84;;;-142.29;50.37
7748;BME280;3918;42.564;23.164;2024-03-17T12:09:45;-11650.84;;;-142.29;50.78
7748;BME280;3918;42.564;23.164;2024-03-17T12:12:17;-11650.84;;;-142.29;51.49
7748;BME280;3918;42.564;23.164;2024-03-17T12:14:43;-11650.84;;;-142.29;53.67
7748;BME280;3918;42.564;23.164;2024-03-17T12:17:11;-11650.84;;;-142.29;52.70
7748;BME280;3918;42.564;23.164;2024-03-17T12:19:38;-11650.84;;;-142.29;52.71
7748;BME280;3918;42.564;23.164;2024-03-17T12:22:06;-11650.84;;;-142.29;52.13
7748;BME280;3918;42.564;23.164;2024-03-17T12:24:34;-11650.84;;;-142.29;51.95
7748;BME280;3918;42.564;23.164;2024-03-17T12:27:04;-11650.84;;;-142.29;51.58
7748;BME280;3918;42.564;23.164;2024-03-17T12:29:31;-11650.84;;;-142.29;52.04
7748;BME280;3918;42.564;23.164;2024-03-17T12:32:02;-11650.84;;;-142.29;51.23
7748;BME280;3918;42.564;23.164;2024-03-17T12:34:30;-11650.84;;;-142.29;53.88
7748;BME280;3918;42.564;23.164;2024-03-17T12:36:59;-11650.84;;;-142.29;54.57
7748;BME280;3918;42.564;23.164;2024-03-17T12:39:27;-11650.84;;;-142.29;54.67
7748;BME280;3918;42.564;23.164;2024-03-17T12:42:07;-11650.84;;;-142.29;58.06
7748;BME280;3918;42.564;23.164;2024-03-17T12:44:34;-11650.84;;;-142.29;59.00
7748;BME280;3918;42.564;23.164;2024-03-17T12:47:04;-11650.84;;;-142.29;59.11
7748;BME280;3918;42.564;23.164;2024-03-17T12:49:32;-11650.84;;;-142.29;62.79
7748;BME280;3918;42.564;23.164;2024-03-17T12:52:01;-11650.84;;;-142.29;61.47
7748;BME280;3918;42.564;23.164;2024-03-17T12:54:28;-11650.84;;;-142.29;61.56
7748;BME280;3918;42.564;23.164;2024-03-17T12:57:04;-11650.84;;;-142.29;64.28
7748;BME280;3918;42.564;23.164;2024-03-17T12:59:49;-11650.84;;;-142.29;63.24
7748;BME280;3918;42.564;23.164;2024-03-17T13:02:33;-11650.84;;;-142.29;64.21
7748;BME280;3918;42.564;23.164;2024-03-17T13:05:17;-11650.84;;;-142.29;66.52
7748;BME280;3918;42.564;23.164;2024-03-17T13:07:45;-11650.84;;;-142.29;68.08
7748;BME280;3918;42.564;23.164;2024-03-17T13:10:14;-11650.84;;;-142.29;68.55
7748;BME280;3918;42.564;23.164;2024-03-17T13:12:42;-11650.84;;;-142.29;67.76
7748;BME280;3918;42.564;23.164;2024-03-17T13:15:14;-11650.84;;;-142.29;67.33
7748;BME280;3918;42.564;23.164;2024-03-17T13:17:41;-11650.84;;;-142.29;69.31
7748;BME280;3918;42.564;23.164;2024-03-17T13:20:12;-11650.84;;;-142.29;68.74
7748;BME280;3918;42.564;23.164;2024-03-17T13:22:40;-11650.84;;;-142.29;67.72
7748;BME280;3918;42.564;23.164;2024-03-17T13:25:13;-11650.84;;;-142.29;69.32
7748;BME280;3918;42.564;23.164;2024-03-17T13:27:42;-11650.84;;;-142.29;73.21
7748;BME280;3918;42.564;23.164;2024-03-17T13:30:13;-11650.84;;;-142.29;76.60
7748;BME280;3918;42.564;23.164;2024-03-17T13:32:41;-11650.84;;;-142.29;84.76
7748;BME280;3918;42.564;23.164;2024-03-17T13:35:15;-11650.84;;;-142.29;84.98
7748;BME280;3918;42.564;23.164;2024-03-17T13:37:49;-11650.84;;;-142.29;86.90
7748;BME280;3918;42.564;23.164;2024-03-17T13:40:18;-11650.84;;;-142.29;89.95
7748;BME280;3918;42.564;23.164;2024-03-17T13:42:46;-11650.84;;;-142.29;91.67
7748;BME280;3918;42.564;23.164;2024-03-17T13:45:13;-11650.84;;;-142.29;95.25
7748;BME280;3918;42.564;23.164;2024-03-17T13:47:41;-11650.84;;;-142.29;97.13
7748;BME280;3918;42.564;23.164;2024-03-17T13:50:09;-11650.84;;;-142.29;99.15
7748;BME280;3918;42.564;23.164;2024-03-17T13:52:38;-11650.84;;;-142.29;99.14
7748;BME280;3918;42.564;23.164;2024-03-17T13:55:05;-11650.84;;;-142.29;98.98
7748;BME280;3918;42.564;23.164;2024-03-17T13:57:34;-11650.84;;;-142.29;96.57
7748;BME280;3918;42.564;23.164;2024-03-17T14:00:01;-11650.84;;;-142.29;98.32
7748;BME280;3918;42.564;23.164;2024-03-17T14:02:29;-11650.84;;;-142.29;97.96
7748;BME280;3918;42.564;23.164;2024-03-17T14:04:56;-11650.84;;;-142.29;100.00
7748;BME280;3918;42.564;23.164;2024-03-17T14:07:24;-11650.84;;;-142.29;98.75
7748;BME280;3918;42.564;23.164;2024-03-17T14:09:51;-11650.84;;;-142.29;100.00
7748;BME280;3918;42.564;23.164;2024-03-17T14:12:18;-11650.84;;;-142.29;96.95
7748;BME280;3918;42.564;23.164;2024-03-17T14:14:46;-11650.84;;;-142.29;97.02
7748;BME280;3918;42.564;23.164;2024-03-17T14:17:13;-11650.84;;;-142.29;97.62
7748;BME280;3918;42.564;23.164;2024-03-17T14:19:40;-11650.84;;;-142.29;99.36
7748;BME280;3918;42.564;23.164;2024-03-17T14:22:07;-11650.84;;;-142.29;97.15
7748;BME280;3918;42.564;23.164;2024-03-17T14:24:33;-11650.84;;;-142.29;93.21
7748;BME280;3918;42.564;23.164;2024-03-17T14:27:04;-11650.84;;;-142.29;90.50
7748;BME280;3918;42.564;23.164;2024-03-17T14:29:31;-11650.84;;;-142.29;90.88
7748;BME280;3918;42.564;23.164;2024-03-17T14:31:59;-11650.84;;;-142.29;92.48
7748;BME280;3918;42.564;23.164;2024-03-17T14:34:26;-11650.84;;;-142.29;92.52
7748;BME280;3918;42.564;23.164;2024-03-17T14:36:58;-11650.84;;;-142.29;92.56
7748;BME280;3918;42.564;23.164;2024-03-17T14:39:25;-11650.84;;;-142.29;93.27
7748;BME280;3918;42.564;23.164;2024-03-17T14:41:54;-11650.84;;;-142.29;92.40
7748;BME280;3918;42.564;23.164;2024-03-17T14:44:21;-11650.84;;;-142.29;95.46
7748;BME280;3918;42.564;23.164;2024-03-17T14:46:48;-11650.84;;;-142.29;98.05
7748;BME280;3918;42.564;23.164;2024-03-17T14:49:18;-11650.84;;;-142.29;99.62
7748;BME280;3918;42.564;23.164;2024-03-17T14:51:44;-11650.84;;;-142.29;100.00
7748;BME280;3918;42.564;23.164;2024-03-17T14:54:11;-11650.84;;;-142.29;100.00
7748;BME280;3918;42.564;23.164;2024-03-17T14:56:38;-11650.84;;;-142.29;100.00
7748;BME280;3918;42.564;23.164;2024-03-17T14:59:06;-11650.84;;;-142.29;100.00
7748;BME280;3918;42.564;23.164;2024-03-17T15:01:32;-11650.84;;;-142.29;100.00
7748;BME280;3918;42.564;23.164;2024-03-17T15:03:59;-11650.84;;;-142.29;100.00
7748;BME280;3918;42.564;23.164;2024-03-17T15:06:27;-11650.84;;;-142.29;100.00
7748;BME280;3918;42.564;23.164;2024-03-17T15:08:54;-11650.84;;;-142.29;100.00
7748;BME280;3918;42.564;23.164;2024-03-17T15:11:21;-11650.84;;;-142.29;100.00
7748;BME280;3918;42.564;23.164;2024-03-17T15:13:48;-11650.84;;;-142.29;100.00
7748;BME280;3918;42.564;23.164;2024-03-17T15:16:14;-11650.84;;;-142.29;100.00
7748;BME280;3918;42.564;23.164;2024-03-17T15:18:41;-11650.84;;;-142.29;100.00
7748;BME280;3918;42.564;23.164;2024-03-17T15:21:08;-11650.84;;;-142.29;100.00
7748;BME280;3918;42.564;23.164;2024-03-17T15:23:36;-11650.84;;;-142.29;100.00
7748;BME280;3918;42.564;23.164;2024-03-17T15:26:06;-11650.84;;;-142.29;100.00
7748;BME280;3918;42.564;23.164;2024-03-17T15:28:34;-11650.84;;;-142.29;100.00
7748;BME280;3918;42.564;23.164;2024-03-17T15:31:04;-11650.84;;;-142.29;100.00
7748;BME280;3918;42.564;23.164;2024-03-17T15:33:32;-11650.84;;;-142.29;100.00
7748;BME280;3918;42.564;23.164;2024-03-17T15:36:02;-11650.84;;;-142.29;100.00
7748;BME280;3918;42.564;23.164;2024-03-17T15:38:30;-11650.84;;;-142.29;100.00
7748;BME280;3918;42.564;23.164;2024-03-17T15:40:59;-11650.84;;;-142.29;100.00
7748;BME280;3918;42.564;23.164;2024-03-17T15:43:37;-11650.84;;;-142.29;100.00
7748;BME280;3918;42.564;23.164;2024-03-17T15:46:14;-11650.84;;;-142.29;100.00
7748;BME280;3918;42.564;23.164;2024-03-17T15:48:43;-11650.84;;;-142.29;100.00
7748;BME280;3918;42.564;23.164;2024-03-17T15:51:10;-11650.84;;;-142.29;100.00
7748;BME280;3918;42.564;23.164;2024-03-17T15:53:37;-11650.84;;;-142.29;100.00
7748;BME280;3918;42.564;23.164;2024-03-17T15:56:06;-11650.84;;;-142.29;100.00
7748;BME280;3918;42.564;23.164;2024-03-17T15:58:33;-11650.84;;;-142.29;100.00
7748;BME280;3918;42.564;23.164;2024-03-17T16:01:04;-11650.84;;;-142.29;100.00
7748;BME280;3918;42.564;23.164;2024-03-17T16:03:33;-11650.84;;;-142.29;100.00
7748;BME280;3918;42.564;23.164;2024-03-17T16:06:03;-11650.84;;;-142.29;100.00
7748;BME280;3918;42.564;23.164;2024-03-17T16:08:33;-11650.84;;;-142.29;100.00
7748;BME280;3918;42.564;23.164;2024-03-17T16:11:00;-11650.84;;;-142.29;100.00
7748;BME280;3918;42.564;23.164;2024-03-17T16:13:29;-11650.84;;;-142.29;100.00
7748;BME280;3918;42.564;23.164;2024-03-17T16:15:57;-11650.84;;;-142.29;100.00
7748;BME280;3918;42.564;23.164;2024-03-17T16:18:25;-11650.84;;;-142.29;100.00
7748;BME280;3918;42.564;23.164;2024-03-17T16:20:57;-11650.84;;;-142.29;100.00
7748;BME280;3918;42.564;23.164;2024-03-17T16:23:28;-11650.84;;;-142.29;100.00
7748;BME280;3918;42.564;23.164;2024-03-17T16:25:55;-11650.84;;;-142.29;100.00
7748;BME280;3918;42.564;23.164;2024-03-17T16:28:24;-11650.84;;;-142.29;100.00
7748;BME280;3918;42.564;23.164;2024-03-17T16:30:54;-11650.84;;;-142.29;100.00
7748;BME280;3918;42.564;23.164;2024-03-17T16:33:22;-11650.84;;;-142.29;100.00
7748;BME280;3918;42.564;23.164;2024-03-17T16:35:49;-11650.84;;;-142.29;100.00
7748;BME280;3918;42.564;23.164;2024-03-17T16:38:16;-11650.84;;;-142.29;100.00
7748;BME280;3918;42.564;23.164;2024-03-17T16:40:45;-11650.84;;;-142.29;100.00
7748;BME280;3918;42.564;23.164;2024-03-17T16:43:17;-11650.84;;;-142.29;100.00
7748;BME280;3918;42.564;23.164;2024-03-17T16:45:52;-11650.84;;;-142.29;100.00
7748;BME280;3918;42.564;23.164;2024-03-17T16:48:26;-11650.84;;;-142.29;100.00
7748;BME280;3918;42.564;23.164;2024-03-17T16:50:53;-11650.84;;;-142.29;100.00
7748;BME280;3918;42.564;23.164;2024-03-17T16:53:21;-11650.84;;;-142.29;100.00
7748;BME280;3918;42.564;23.164;2024-03-17T16:55:48;-11650.84;;;-142.29;100.00
7748;BME280;3918;42.564;23.164;2024-03-17T16:58:15;-11650.84;;;-142.29;100.00
7748;BME280;3918;42.564;23.164;2024-03-17T17:00:42;-11650.84;;;-142.29;100.00
7748;BME280;3918;42.564;23.164;2024-03-17T17:03:09;-11650.84;;;-142.29;100.00
7748;BME280;3918;42.564;23.164;2024-03-17T17:05:37;-11650.84;;;-142.29;100.00
7748;BME280;3918;42.564;23.164;2024-03-17T17:08:04;-11650.84;;;-142.29;100.00
7748;BME280;3918;42.564;23.164;2024-03-17T17:10:31;-11650.84;;;-142.29;100.00
7748;BME280;3918;42.564;23.164;2024-03-17T17:12:58;-11650.84;;;-142.29;100.00
7748;BME280;3918;42.564;23.164;2024-03-17T17:15:24;-11650.84;;;-142.29;100.00
7748;BME280;3918;42.564;23.164;2024-03-17T17:17:51;-11650.84;;;-142.29;100.00
7748;BME280;3918;42.564;23.164;2024-03-17T17:20:22;-11650.84;;;-142.29;100.00
7748;BME280;3918;42.564;23.164;2024-03-17T17:22:59;-11650.84;;;-142.29;100.00
7748;BME280;3918;42.564;23.164;2024-03-17T17:25:26;-11650.84;;;-142.29;100.00
7748;BME280;3918;42.564;23.164;2024-03-17T17:27:53;-11650.84;;;-142.29;100.00
7748;BME280;3918;42.564;23.164;2024-03-17T17:30:19;-11650.84;;;-142.29;100.00
7748;BME280;3918;42.564;23.164;2024-03-17T17:32:53;-11650.84;;;-142.29;100.00
7748;BME280;3918;42.564;23.164;2024-03-17T17:35:20;-11650.84;;;-142.29;100.00
7748;BME280;3918;42.564;23.164;2024-03-17T17:37:47;-11650.84;;;-142.29;100.00
7748;BME280;3918;42.564;23.164;2024-03-17T17:40:15;-11650.84;;;-142.29;100.00
7748;BME280;3918;42.564;23.164;2024-03-17T17:42:42;-11650.84;;;-142.29;100.00
7748;BME280;3918;42.564;23.164;2024-03-17T17:45:09;-11650.84;;;-142.29;100.00
7748;BME280;3918;42.564;23.164;2024-03-17T17:47:36;-11650.84;;;-142.29;100.00